Vadito, NM (87579)

9:06 AM MDT on July 29, 2016 (GMT -0600)
Sipapu Ski Resort | | Change Station

Elev 8186 ft 36.15 °N, 105.55 °W | Updated 1 minute ago

Clear
Clear
57.4 °F
Feels Like 57.4 °F
N
0.0
Wind Variable Wind from East
Gusts 1.0 mph

Today
High -- | Low -- °F
--% Chance of Precip.
Yesterday
High -- | Low -- °F
Precip. -- in
Pressure 30.33 in
Visibility 10.0 miles
Clouds Clear
Dew Point 54 °F
Humidity 87%
Rainfall 0.18 in
Snow Depth Not available.
6:07 AM 8:10 PM
Waning Crescent, 21% visible
METAR KSKX 291455Z AUTO 26006KT 10SM CLR 23/04 A3033 RMK AO1 52003
Pressure 30.33 in
Visibility 10.0 miles
Clouds Clear
Dew Point 54 °F
Humidity 87%
Rainfall 0.18 in
Snow Depth Not available.
6:07 AM 8:10 PM
Waning Crescent, 21% visible
METAR KSKX 291455Z AUTO 26006KT 10SM CLR 23/04 A3033 RMK AO1 52003

10-Day Weather Forecast

Almanac

Astronomy

Jul. 29, 2016 Rise Set
Actual Time
Civil Twilight
Nautical Twilight
Astronomical Twilight
Moon
Length of Visible Light
Length of Day
Tomorrow will be .
, % of the Moon is Illuminated

Today's Extremes

State Highs State Lows

Community

WunderPhotos

Upload Photos

1,928,345 photos uploaded!

WunderBlog® & News

Nearby

Air Quality

  Air Quality AQ Index Pollutant
Not available.

Snow Depth

Station Depth Elevation

Earthquake Activity

City Distance Mag. Time & Date
Minimum magnitude displayed is 2.5.

Coastal Water Temperatures

Place Temperature

Stations

Nearby Weather Stations

Station Location Temp. Windchill Dew Point Humidity Wind Precip. Elev Updated Type
                   

Watches & Warnings

There are currently no watches in effect.